sensor_id;sensor_type;location;lat;lon;timestamp;P1;durP1;ratioP1;P2;durP2;ratioP2
49548;SDS011;35450;44.518;7.466;2023-05-07T00:00:11;11.57;;;9.68;;
49548;SDS011;35450;44.518;7.466;2023-05-07T00:03:18;12.75;;;10.13;;
49548;SDS011;35450;44.518;7.466;2023-05-07T00:06:23;11.48;;;9.93;;
49548;SDS011;35450;44.518;7.466;2023-05-07T00:09:29;14.40;;;10.15;;
49548;SDS011;35450;44.518;7.466;2023-05-07T00:12:33;13.70;;;9.45;;
49548;SDS011;35450;44.518;7.466;2023-05-07T00:15:37;12.88;;;7.97;;
49548;SDS011;35450;44.518;7.466;2023-05-07T00:18:41;9.10;;;7.03;;
49548;SDS011;35450;44.518;7.466;2023-05-07T00:21:45;9.45;;;7.28;;
49548;SDS011;35450;44.518;7.466;2023-05-07T00:24:49;8.80;;;6.68;;
49548;SDS011;35450;44.518;7.466;2023-05-07T00:27:53;13.48;;;7.80;;
49548;SDS011;35450;44.518;7.466;2023-05-07T00:30:56;9.73;;;7.22;;
49548;SDS011;35450;44.518;7.466;2023-05-07T00:34:00;10.95;;;6.85;;
49548;SDS011;35450;44.518;7.466;2023-05-07T00:37:04;8.38;;;7.05;;
49548;SDS011;35450;44.518;7.466;2023-05-07T00:40:10;7.80;;;6.20;;
49548;SDS011;35450;44.518;7.466;2023-05-07T00:43:14;8.50;;;7.10;;
49548;SDS011;35450;44.518;7.466;2023-05-07T00:46:19;12.20;;;7.22;;
49548;SDS011;35450;44.518;7.466;2023-05-07T00:49:32;8.20;;;7.35;;
49548;SDS011;35450;44.518;7.466;2023-05-07T00:52:43;13.82;;;8.68;;
49548;SDS011;35450;44.518;7.466;2023-05-07T00:55:47;11.13;;;6.85;;
49548;SDS011;35450;44.518;7.466;2023-05-07T00:58:52;10.82;;;6.75;;
49548;SDS011;35450;44.518;7.466;2023-05-07T01:01:56;9.38;;;7.05;;
49548;SDS011;35450;44.518;7.466;2023-05-07T01:05:00;8.80;;;6.40;;
49548;SDS011;35450;44.518;7.466;2023-05-07T01:08:05;20.20;;;6.63;;
49548;SDS011;35450;44.518;7.466;2023-05-07T01:11:09;10.77;;;8.07;;
49548;SDS011;35450;44.518;7.466;2023-05-07T01:14:15;8.63;;;7.55;;
49548;SDS011;35450;44.518;7.466;2023-05-07T01:17:19;9.07;;;7.85;;
49548;SDS011;35450;44.518;7.466;2023-05-07T01:20:24;8.75;;;7.45;;
49548;SDS011;35450;44.518;7.466;2023-05-07T01:23:30;11.13;;;8.15;;
49548;SDS011;35450;44.518;7.466;2023-05-07T01:26:34;11.65;;;8.23;;
49548;SDS011;35450;44.518;7.466;2023-05-07T01:29:38;10.02;;;7.40;;
49548;SDS011;35450;44.518;7.466;2023-05-07T01:32:43;10.68;;;6.95;;
49548;SDS011;35450;44.518;7.466;2023-05-07T01:35:59;7.72;;;6.43;;
49548;SDS011;35450;44.518;7.466;2023-05-07T01:39:06;7.32;;;6.65;;
49548;SDS011;35450;44.518;7.466;2023-05-07T01:42:11;9.85;;;7.30;;
49548;SDS011;35450;44.518;7.466;2023-05-07T01:45:16;12.18;;;7.22;;
49548;SDS011;35450;44.518;7.466;2023-05-07T01:48:20;11.15;;;7.15;;
49548;SDS011;35450;44.518;7.466;2023-05-07T01:51:24;11.43;;;6.88;;
49548;SDS011;35450;44.518;7.466;2023-05-07T01:54:29;8.75;;;6.13;;
49548;SDS011;35450;44.518;7.466;2023-05-07T01:57:35;8.98;;;6.50;;
49548;SDS011;35450;44.518;7.466;2023-05-07T02:00:39;5.90;;;5.30;;
49548;SDS011;35450;44.518;7.466;2023-05-07T02:03:45;9.35;;;5.93;;
49548;SDS011;35450;44.518;7.466;2023-05-07T02:06:57;7.13;;;6.15;;
49548;SDS011;35450;44.518;7.466;2023-05-07T02:10:01;9.15;;;5.97;;
49548;SDS011;35450;44.518;7.466;2023-05-07T02:13:06;8.20;;;5.95;;
49548;SDS011;35450;44.518;7.466;2023-05-07T02:16:10;8.88;;;5.95;;
49548;SDS011;35450;44.518;7.466;2023-05-07T02:19:15;9.25;;;5.07;;
49548;SDS011;35450;44.518;7.466;2023-05-07T02:22:19;9.23;;;6.20;;
49548;SDS011;35450;44.518;7.466;2023-05-07T02:25:23;6.82;;;4.72;;
49548;SDS011;35450;44.518;7.466;2023-05-07T02:28:27;10.70;;;5.22;;
49548;SDS011;35450;44.518;7.466;2023-05-07T02:31:36;5.07;;;4.57;;
49548;SDS011;35450;44.518;7.466;2023-05-07T02:34:40;5.57;;;4.43;;
49548;SDS011;35450;44.518;7.466;2023-05-07T02:37:44;3.63;;;3.33;;
49548;SDS011;35450;44.518;7.466;2023-05-07T02:40:48;5.15;;;3.40;;
49548;SDS011;35450;44.518;7.466;2023-05-07T02:43:53;5.20;;;3.08;;
49548;SDS011;35450;44.518;7.466;2023-05-07T02:46:58;5.57;;;3.10;;
49548;SDS011;35450;44.518;7.466;2023-05-07T02:50:02;10.32;;;3.72;;
49548;SDS011;35450;44.518;7.466;2023-05-07T02:53:07;3.33;;;3.03;;
49548;SDS011;35450;44.518;7.466;2023-05-07T02:56:11;5.82;;;2.50;;
49548;SDS011;35450;44.518;7.466;2023-05-07T02:59:15;3.05;;;2.38;;
49548;SDS011;35450;44.518;7.466;2023-05-07T03:02:19;3.58;;;2.25;;
49548;SDS011;35450;44.518;7.466;2023-05-07T03:05:23;3.65;;;2.28;;
49548;SDS011;35450;44.518;7.466;2023-05-07T03:08:27;3.65;;;2.38;;
49548;SDS011;35450;44.518;7.466;2023-05-07T03:11:31;3.25;;;2.40;;
49548;SDS011;35450;44.518;7.466;2023-05-07T03:14:36;2.78;;;2.40;;
49548;SDS011;35450;44.518;7.466;2023-05-07T03:17:40;2.08;;;1.88;;
49548;SDS011;35450;44.518;7.466;2023-05-07T03:20:44;2.08;;;1.77;;
49548;SDS011;35450;44.518;7.466;2023-05-07T03:23:48;2.42;;;1.88;;
49548;SDS011;35450;44.518;7.466;2023-05-07T03:26:52;2.47;;;1.70;;
49548;SDS011;35450;44.518;7.466;2023-05-07T03:29:56;3.85;;;1.73;;
49548;SDS011;35450;44.518;7.466;2023-05-07T03:33:00;3.42;;;1.83;;
49548;SDS011;35450;44.518;7.466;2023-05-07T03:36:05;2.75;;;1.98;;
49548;SDS011;35450;44.518;7.466;2023-05-07T03:39:09;7.60;;;1.70;;
49548;SDS011;35450;44.518;7.466;2023-05-07T03:42:16;4.38;;;1.85;;
49548;SDS011;35450;44.518;7.466;2023-05-07T03:45:21;2.60;;;1.80;;
49548;SDS011;35450;44.518;7.466;2023-05-07T03:48:34;3.70;;;1.70;;
49548;SDS011;35450;44.518;7.466;2023-05-07T03:51:38;3.78;;;2.20;;
49548;SDS011;35450;44.518;7.466;2023-05-07T03:54:44;4.15;;;2.30;;
49548;SDS011;35450;44.518;7.466;2023-05-07T03:57:51;5.85;;;1.90;;
49548;SDS011;35450;44.518;7.466;2023-05-07T04:00:56;2.75;;;2.03;;
49548;SDS011;35450;44.518;7.466;2023-05-07T04:04:04;2.53;;;1.90;;
49548;SDS011;35450;44.518;7.466;2023-05-07T04:07:11;2.65;;;1.90;;
49548;SDS011;35450;44.518;7.466;2023-05-07T04:10:19;6.00;;;1.90;;
49548;SDS011;35450;44.518;7.466;2023-05-07T04:13:25;2.40;;;2.17;;
49548;SDS011;35450;44.518;7.466;2023-05-07T04:16:30;3.30;;;1.98;;
49548;SDS011;35450;44.518;7.466;2023-05-07T04:19:34;2.90;;;1.80;;
49548;SDS011;35450;44.518;7.466;2023-05-07T04:22:38;4.47;;;2.28;;
49548;SDS011;35450;44.518;7.466;2023-05-07T04:25:43;4.55;;;2.95;;
49548;SDS011;35450;44.518;7.466;2023-05-07T04:29:16;2.55;;;2.28;;
49548;SDS011;35450;44.518;7.466;2023-05-07T04:32:20;3.38;;;2.58;;
49548;SDS011;35450;44.518;7.466;2023-05-07T04:35:26;3.10;;;2.80;;
49548;SDS011;35450;44.518;7.466;2023-05-07T04:38:30;2.58;;;2.38;;
49548;SDS011;35450;44.518;7.466;2023-05-07T04:41:36;5.65;;;2.65;;
49548;SDS011;35450;44.518;7.466;2023-05-07T04:44:42;3.70;;;2.85;;
49548;SDS011;35450;44.518;7.466;2023-05-07T04:47:48;3.72;;;2.65;;
49548;SDS011;35450;44.518;7.466;2023-05-07T04:50:52;5.25;;;2.72;;
49548;SDS011;35450;44.518;7.466;2023-05-07T04:53:57;3.42;;;2.53;;
49548;SDS011;35450;44.518;7.466;2023-05-07T04:57:03;5.70;;;2.33;;
49548;SDS011;35450;44.518;7.466;2023-05-07T05:00:08;2.13;;;1.73;;
49548;SDS011;35450;44.518;7.466;2023-05-07T05:03:15;3.55;;;2.38;;
49548;SDS011;35450;44.518;7.466;2023-05-07T05:06:18;7.32;;;2.63;;
49548;SDS011;35450;44.518;7.466;2023-05-07T05:09:22;4.22;;;2.75;;
49548;SDS011;35450;44.518;7.466;2023-05-07T05:12:26;4.18;;;3.55;;
49548;SDS011;35450;44.518;7.466;2023-05-07T05:15:30;7.57;;;3.80;;
49548;SDS011;35450;44.518;7.466;2023-05-07T05:18:35;7.80;;;3.38;;
49548;SDS011;35450;44.518;7.466;2023-05-07T05:21:40;4.18;;;3.65;;
49548;SDS011;35450;44.518;7.466;2023-05-07T05:24:46;4.70;;;3.45;;
49548;SDS011;35450;44.518;7.466;2023-05-07T05:27:50;9.23;;;3.70;;
49548;SDS011;35450;44.518;7.466;2023-05-07T05:30:54;5.65;;;3.45;;
49548;SDS011;35450;44.518;7.466;2023-05-07T05:34:00;4.10;;;3.70;;
49548;SDS011;35450;44.518;7.466;2023-05-07T05:37:05;7.82;;;4.07;;
49548;SDS011;35450;44.518;7.466;2023-05-07T05:40:10;6.80;;;3.92;;
49548;SDS011;35450;44.518;7.466;2023-05-07T05:43:14;3.45;;;2.72;;
49548;SDS011;35450;44.518;7.466;2023-05-07T05:46:18;4.82;;;2.70;;
49548;SDS011;35450;44.518;7.466;2023-05-07T05:49:23;4.50;;;3.17;;
49548;SDS011;35450;44.518;7.466;2023-05-07T05:52:27;3.17;;;2.80;;
49548;SDS011;35450;44.518;7.466;2023-05-07T05:55:33;8.80;;;2.92;;
49548;SDS011;35450;44.518;7.466;2023-05-07T05:58:37;7.82;;;3.78;;
49548;SDS011;35450;44.518;7.466;2023-05-07T06:01:43;5.47;;;4.68;;
49548;SDS011;35450;44.518;7.466;2023-05-07T06:04:48;5.90;;;4.90;;
49548;SDS011;35450;44.518;7.466;2023-05-07T06:07:56;8.90;;;5.00;;
49548;SDS011;35450;44.518;7.466;2023-05-07T06:11:00;8.55;;;4.95;;
49548;SDS011;35450;44.518;7.466;2023-05-07T06:14:07;12.15;;;6.15;;
49548;SDS011;35450;44.518;7.466;2023-05-07T06:17:11;8.70;;;5.30;;
49548;SDS011;35450;44.518;7.466;2023-05-07T06:20:16;7.40;;;5.15;;
49548;SDS011;35450;44.518;7.466;2023-05-07T06:23:21;8.77;;;4.97;;
49548;SDS011;35450;44.518;7.466;2023-05-07T06:26:25;4.97;;;4.47;;
49548;SDS011;35450;44.518;7.466;2023-05-07T06:29:29;5.10;;;4.20;;
49548;SDS011;35450;44.518;7.466;2023-05-07T06:32:36;7.32;;;4.45;;
49548;SDS011;35450;44.518;7.466;2023-05-07T06:35:41;5.25;;;4.60;;
49548;SDS011;35450;44.518;7.466;2023-05-07T06:38:45;9.77;;;5.70;;
49548;SDS011;35450;44.518;7.466;2023-05-07T06:41:49;6.60;;;5.10;;
49548;SDS011;35450;44.518;7.466;2023-05-07T06:45:01;7.63;;;5.30;;
49548;SDS011;35450;44.518;7.466;2023-05-07T06:48:08;6.18;;;5.55;;
49548;SDS011;35450;44.518;7.466;2023-05-07T06:51:21;6.40;;;5.50;;
49548;SDS011;35450;44.518;7.466;2023-05-07T06:54:26;8.02;;;5.97;;
49548;SDS011;35450;44.518;7.466;2023-05-07T06:57:30;6.78;;;6.13;;
49548;SDS011;35450;44.518;7.466;2023-05-07T07:00:34;8.75;;;5.50;;
49548;SDS011;35450;44.518;7.466;2023-05-07T07:03:38;8.82;;;5.63;;
49548;SDS011;35450;44.518;7.466;2023-05-07T07:06:42;7.03;;;5.30;;
49548;SDS011;35450;44.518;7.466;2023-05-07T07:09:49;7.85;;;5.30;;
49548;SDS011;35450;44.518;7.466;2023-05-07T07:12:55;7.65;;;5.45;;
49548;SDS011;35450;44.518;7.466;2023-05-07T07:16:00;17.08;;;6.03;;
49548;SDS011;35450;44.518;7.466;2023-05-07T07:19:05;6.40;;;5.38;;
49548;SDS011;35450;44.518;7.466;2023-05-07T07:22:09;6.32;;;5.50;;
49548;SDS011;35450;44.518;7.466;2023-05-07T07:25:13;7.55;;;5.65;;
49548;SDS011;35450;44.518;7.466;2023-05-07T07:28:20;8.90;;;5.75;;
49548;SDS011;35450;44.518;7.466;2023-05-07T07:31:25;7.93;;;5.88;;
49548;SDS011;35450;44.518;7.466;2023-05-07T07:34:29;9.43;;;6.30;;
49548;SDS011;35450;44.518;7.466;2023-05-07T07:37:34;8.70;;;6.82;;
49548;SDS011;35450;44.518;7.466;2023-05-07T07:40:38;9.27;;;6.43;;
49548;SDS011;35450;44.518;7.466;2023-05-07T07:43:44;8.57;;;6.93;;
49548;SDS011;35450;44.518;7.466;2023-05-07T07:46:50;8.10;;;6.80;;
49548;SDS011;35450;44.518;7.466;2023-05-07T07:49:56;10.13;;;7.05;;
49548;SDS011;35450;44.518;7.466;2023-05-07T07:53:00;9.63;;;6.95;;
49548;SDS011;35450;44.518;7.466;2023-05-07T07:56:04;9.77;;;7.18;;
49548;SDS011;35450;44.518;7.466;2023-05-07T07:59:10;9.90;;;7.97;;
49548;SDS011;35450;44.518;7.466;2023-05-07T08:02:17;12.10;;;7.95;;
49548;SDS011;35450;44.518;7.466;2023-05-07T08:05:22;15.57;;;7.63;;
49548;SDS011;35450;44.518;7.466;2023-05-07T08:08:27;11.00;;;8.07;;
49548;SDS011;35450;44.518;7.466;2023-05-07T08:11:32;9.13;;;7.60;;
49548;SDS011;35450;44.518;7.466;2023-05-07T08:14:36;13.75;;;8.00;;
49548;SDS011;35450;44.518;7.466;2023-05-07T08:17:43;9.43;;;7.53;;
49548;SDS011;35450;44.518;7.466;2023-05-07T08:20:47;9.20;;;7.70;;
49548;SDS011;35450;44.518;7.466;2023-05-07T08:23:56;10.00;;;8.68;;
49548;SDS011;35450;44.518;7.466;2023-05-07T08:27:00;12.00;;;8.88;;
49548;SDS011;35450;44.518;7.466;2023-05-07T08:30:04;10.30;;;7.72;;
49548;SDS011;35450;44.518;7.466;2023-05-07T08:33:09;8.32;;;7.45;;
49548;SDS011;35450;44.518;7.466;2023-05-07T08:36:13;9.55;;;8.38;;
49548;SDS011;35450;44.518;7.466;2023-05-07T08:39:17;13.45;;;8.93;;
49548;SDS011;35450;44.518;7.466;2023-05-07T08:42:25;13.20;;;7.93;;
49548;SDS011;35450;44.518;7.466;2023-05-07T08:45:30;11.93;;;8.40;;
49548;SDS011;35450;44.518;7.466;2023-05-07T08:48:36;8.40;;;7.47;;
49548;SDS011;35450;44.518;7.466;2023-05-07T08:51:46;12.02;;;7.97;;
49548;SDS011;35450;44.518;7.466;2023-05-07T08:54:51;9.38;;;7.78;;
49548;SDS011;35450;44.518;7.466;2023-05-07T08:57:55;9.80;;;7.60;;
49548;SDS011;35450;44.518;7.466;2023-05-07T09:01:01;8.98;;;7.75;;
49548;SDS011;35450;44.518;7.466;2023-05-07T09:04:10;8.20;;;7.40;;
49548;SDS011;35450;44.518;7.466;2023-05-07T09:07:17;10.40;;;8.18;;
49548;SDS011;35450;44.518;7.466;2023-05-07T09:10:21;10.98;;;8.15;;
49548;SDS011;35450;44.518;7.466;2023-05-07T09:13:26;14.63;;;8.57;;
49548;SDS011;35450;44.518;7.466;2023-05-07T09:16:31;10.77;;;7.70;;
49548;SDS011;35450;44.518;7.466;2023-05-07T09:19:37;10.32;;;8.40;;
49548;SDS011;35450;44.518;7.466;2023-05-07T09:22:43;10.60;;;8.55;;
49548;SDS011;35450;44.518;7.466;2023-05-07T09:25:52;12.95;;;8.45;;
49548;SDS011;35450;44.518;7.466;2023-05-07T09:29:07;13.18;;;9.18;;
49548;SDS011;35450;44.518;7.466;2023-05-07T09:32:11;11.98;;;9.77;;
49548;SDS011;35450;44.518;7.466;2023-05-07T09:35:17;26.77;;;9.65;;
49548;SDS011;35450;44.518;7.466;2023-05-07T09:38:25;10.77;;;8.90;;
49548;SDS011;35450;44.518;7.466;2023-05-07T09:41:42;11.15;;;9.35;;
49548;SDS011;35450;44.518;7.466;2023-05-07T09:44:52;12.35;;;10.82;;
49548;SDS011;35450;44.518;7.466;2023-05-07T09:48:00;11.85;;;9.68;;
49548;SDS011;35450;44.518;7.466;2023-05-07T09:51:11;12.88;;;9.68;;
49548;SDS011;35450;44.518;7.466;2023-05-07T09:54:40;13.15;;;10.73;;
49548;SDS011;35450;44.518;7.466;2023-05-07T09:57:49;11.55;;;10.35;;
49548;SDS011;35450;44.518;7.466;2023-05-07T10:00:54;14.50;;;10.75;;
49548;SDS011;35450;44.518;7.466;2023-05-07T10:04:01;11.40;;;10.20;;
49548;SDS011;35450;44.518;7.466;2023-05-07T10:07:07;13.25;;;10.00;;
49548;SDS011;35450;44.518;7.466;2023-05-07T10:10:14;12.13;;;10.05;;
49548;SDS011;35450;44.518;7.466;2023-05-07T10:13:21;15.27;;;9.50;;
49548;SDS011;35450;44.518;7.466;2023-05-07T10:16:30;14.68;;;10.80;;
49548;SDS011;35450;44.518;7.466;2023-05-07T10:19:36;11.80;;;9.88;;
49548;SDS011;35450;44.518;7.466;2023-05-07T10:22:46;13.98;;;10.75;;
49548;SDS011;35450;44.518;7.466;2023-05-07T10:25:56;15.38;;;10.07;;
49548;SDS011;35450;44.518;7.466;2023-05-07T10:29:05;16.13;;;9.60;;
49548;SDS011;35450;44.518;7.466;2023-05-07T10:35:55;13.68;;;9.82;;
49548;SDS011;35450;44.518;7.466;2023-05-07T10:39:04;11.23;;;9.43;;
49548;SDS011;35450;44.518;7.466;2023-05-07T10:42:10;11.05;;;9.43;;
49548;SDS011;35450;44.518;7.466;2023-05-07T10:45:17;11.32;;;9.57;;
49548;SDS011;35450;44.518;7.466;2023-05-07T10:48:25;10.85;;;8.98;;
49548;SDS011;35450;44.518;7.466;2023-05-07T10:51:33;16.52;;;9.65;;
49548;SDS011;35450;44.518;7.466;2023-05-07T10:54:47;13.23;;;10.05;;
49548;SDS011;35450;44.518;7.466;2023-05-07T10:58:26;17.17;;;9.38;;
49548;SDS011;35450;44.518;7.466;2023-05-07T11:02:02;11.80;;;9.27;;
49548;SDS011;35450;44.518;7.466;2023-05-07T11:05:19;11.88;;;9.85;;
49548;SDS011;35450;44.518;7.466;2023-05-07T11:11:51;13.18;;;9.63;;
49548;SDS011;35450;44.518;7.466;2023-05-07T11:15:31;9.43;;;8.52;;
49548;SDS011;35450;44.518;7.466;2023-05-07T11:18:47;10.18;;;8.27;;
49548;SDS011;35450;44.518;7.466;2023-05-07T11:21:52;9.13;;;8.32;;
49548;SDS011;35450;44.518;7.466;2023-05-07T11:25:03;11.35;;;8.25;;
49548;SDS011;35450;44.518;7.466;2023-05-07T11:28:10;10.63;;;8.57;;
49548;SDS011;35450;44.518;7.466;2023-05-07T11:31:21;10.05;;;7.90;;
49548;SDS011;35450;44.518;7.466;2023-05-07T11:34:27;8.38;;;7.20;;
49548;SDS011;35450;44.518;7.466;2023-05-07T11:37:34;8.25;;;7.25;;
49548;SDS011;35450;44.518;7.466;2023-05-07T11:43:55;8.70;;;7.22;;
49548;SDS011;35450;44.518;7.466;2023-05-07T11:47:00;8.68;;;7.80;;
49548;SDS011;35450;44.518;7.466;2023-05-07T11:50:05;10.07;;;7.97;;
49548;SDS011;35450;44.518;7.466;2023-05-07T11:53:10;10.52;;;7.50;;
49548;SDS011;35450;44.518;7.466;2023-05-07T11:56:15;10.50;;;8.10;;
49548;SDS011;35450;44.518;7.466;2023-05-07T11:59:21;9.32;;;7.60;;
49548;SDS011;35450;44.518;7.466;2023-05-07T12:02:25;9.13;;;7.95;;
49548;SDS011;35450;44.518;7.466;2023-05-07T12:05:29;11.80;;;8.40;;
49548;SDS011;35450;44.518;7.466;2023-05-07T12:08:35;12.52;;;7.43;;
49548;SDS011;35450;44.518;7.466;2023-05-07T12:11:41;9.18;;;7.03;;
49548;SDS011;35450;44.518;7.466;2023-05-07T12:14:49;9.02;;;7.43;;
49548;SDS011;35450;44.518;7.466;2023-05-07T12:17:53;14.13;;;8.05;;
49548;SDS011;35450;44.518;7.466;2023-05-07T12:20:58;8.52;;;7.72;;
49548;SDS011;35450;44.518;7.466;2023-05-07T12:24:03;7.88;;;7.07;;
49548;SDS011;35450;44.518;7.466;2023-05-07T12:27:08;7.78;;;6.78;;
49548;SDS011;35450;44.518;7.466;2023-05-07T12:30:13;9.57;;;8.05;;
49548;SDS011;35450;44.518;7.466;2023-05-07T12:33:17;8.95;;;7.03;;
49548;SDS011;35450;44.518;7.466;2023-05-07T12:36:24;7.57;;;6.43;;
49548;SDS011;35450;44.518;7.466;2023-05-07T12:39:29;8.52;;;7.72;;
49548;SDS011;35450;44.518;7.466;2023-05-07T12:42:35;11.77;;;9.00;;
49548;SDS011;35450;44.518;7.466;2023-05-07T12:45:40;9.30;;;7.10;;
49548;SDS011;35450;44.518;7.466;2023-05-07T12:48:45;9.20;;;8.30;;
49548;SDS011;35450;44.518;7.466;2023-05-07T12:51:49;10.93;;;8.45;;
49548;SDS011;35450;44.518;7.466;2023-05-07T12:54:53;11.88;;;9.73;;
49548;SDS011;35450;44.518;7.466;2023-05-07T12:57:57;11.50;;;8.45;;
49548;SDS011;35450;44.518;7.466;2023-05-07T13:01:06;11.52;;;8.95;;
49548;SDS011;35450;44.518;7.466;2023-05-07T13:04:12;9.77;;;8.45;;
49548;SDS011;35450;44.518;7.466;2023-05-07T13:07:16;13.25;;;9.00;;
49548;SDS011;35450;44.518;7.466;2023-05-07T13:10:21;14.75;;;8.88;;
49548;SDS011;35450;44.518;7.466;2023-05-07T13:13:26;13.20;;;10.38;;
49548;SDS011;35450;44.518;7.466;2023-05-07T13:16:30;14.43;;;9.68;;
49548;SDS011;35450;44.518;7.466;2023-05-07T13:19:34;12.90;;;9.73;;
49548;SDS011;35450;44.518;7.466;2023-05-07T13:22:38;13.88;;;9.13;;
49548;SDS011;35450;44.518;7.466;2023-05-07T13:25:43;10.90;;;8.85;;
49548;SDS011;35450;44.518;7.466;2023-05-07T13:28:47;14.75;;;10.02;;
49548;SDS011;35450;44.518;7.466;2023-05-07T13:31:51;14.05;;;10.00;;
49548;SDS011;35450;44.518;7.466;2023-05-07T13:34:55;15.77;;;10.02;;
49548;SDS011;35450;44.518;7.466;2023-05-07T13:37:59;12.35;;;9.93;;
49548;SDS011;35450;44.518;7.466;2023-05-07T13:41:03;13.25;;;10.52;;
49548;SDS011;35450;44.518;7.466;2023-05-07T13:44:07;29.75;;;16.25;;
49548;SDS011;35450;44.518;7.466;2023-05-07T13:47:11;23.27;;;15.80;;
49548;SDS011;35450;44.518;7.466;2023-05-07T13:50:15;17.80;;;12.77;;
49548;SDS011;35450;44.518;7.466;2023-05-07T13:53:20;12.07;;;10.82;;
49548;SDS011;35450;44.518;7.466;2023-05-07T13:56:23;19.88;;;12.18;;
49548;SDS011;35450;44.518;7.466;2023-05-07T13:59:27;17.88;;;11.82;;
49548;SDS011;35450;44.518;7.466;2023-05-07T14:02:31;12.00;;;10.55;;
49548;SDS011;35450;44.518;7.466;2023-05-07T14:05:35;13.02;;;10.55;;
49548;SDS011;35450;44.518;7.466;2023-05-07T14:08:39;10.98;;;9.90;;
49548;SDS011;35450;44.518;7.466;2023-05-07T14:11:44;12.35;;;9.70;;
49548;SDS011;35450;44.518;7.466;2023-05-07T14:14:47;12.10;;;9.25;;
49548;SDS011;35450;44.518;7.466;2023-05-07T14:17:53;10.38;;;9.38;;
49548;SDS011;35450;44.518;7.466;2023-05-07T14:20:57;11.00;;;8.93;;
49548;SDS011;35450;44.518;7.466;2023-05-07T14:24:01;20.45;;;8.45;;
49548;SDS011;35450;44.518;7.466;2023-05-07T14:27:05;12.85;;;8.43;;
49548;SDS011;35450;44.518;7.466;2023-05-07T14:30:09;12.27;;;9.57;;
49548;SDS011;35450;44.518;7.466;2023-05-07T14:33:14;8.82;;;7.95;;
49548;SDS011;35450;44.518;7.466;2023-05-07T14:36:18;13.73;;;8.80;;
49548;SDS011;35450;44.518;7.466;2023-05-07T14:39:26;9.98;;;8.98;;
49548;SDS011;35450;44.518;7.466;2023-05-07T14:42:30;10.77;;;8.70;;
49548;SDS011;35450;44.518;7.466;2023-05-07T14:45:34;10.10;;;7.35;;
49548;SDS011;35450;44.518;7.466;2023-05-07T14:48:37;18.33;;;7.00;;
49548;SDS011;35450;44.518;7.466;2023-05-07T14:51:42;7.50;;;6.13;;
49548;SDS011;35450;44.518;7.466;2023-05-07T14:54:47;7.13;;;6.00;;
49548;SDS011;35450;44.518;7.466;2023-05-07T14:57:51;7.07;;;5.60;;
49548;SDS011;35450;44.518;7.466;2023-05-07T15:00:55;6.22;;;5.57;;
49548;SDS011;35450;44.518;7.466;2023-05-07T15:03:59;6.18;;;5.55;;
49548;SDS011;35450;44.518;7.466;2023-05-07T15:07:03;7.95;;;5.85;;
49548;SDS011;35450;44.518;7.466;2023-05-07T15:10:08;7.75;;;5.13;;
49548;SDS011;35450;44.518;7.466;2023-05-07T15:13:12;7.95;;;4.70;;
49548;SDS011;35450;44.518;7.466;2023-05-07T15:16:16;5.90;;;4.50;;
49548;SDS011;35450;44.518;7.466;2023-05-07T15:19:20;5.88;;;5.30;;
49548;SDS011;35450;44.518;7.466;2023-05-07T15:22:25;6.78;;;4.60;;
49548;SDS011;35450;44.518;7.466;2023-05-07T15:25:29;8.60;;;6.65;;
49548;SDS011;35450;44.518;7.466;2023-05-07T15:28:34;9.43;;;7.65;;
49548;SDS011;35450;44.518;7.466;2023-05-07T15:31:38;6.85;;;5.72;;
49548;SDS011;35450;44.518;7.466;2023-05-07T15:34:42;9.57;;;5.15;;
49548;SDS011;35450;44.518;7.466;2023-05-07T15:37:46;6.57;;;5.18;;
49548;SDS011;35450;44.518;7.466;2023-05-07T15:40:50;7.03;;;5.78;;
49548;SDS011;35450;44.518;7.466;2023-05-07T15:43:54;7.20;;;4.97;;
49548;SDS011;35450;44.518;7.466;2023-05-07T15:46:58;7.55;;;5.47;;
49548;SDS011;35450;44.518;7.466;2023-05-07T15:50:03;9.15;;;5.63;;
49548;SDS011;35450;44.518;7.466;2023-05-07T15:53:07;9.82;;;5.78;;
49548;SDS011;35450;44.518;7.466;2023-05-07T15:56:12;8.68;;;5.78;;
49548;SDS011;35450;44.518;7.466;2023-05-07T15:59:16;9.57;;;4.65;;
49548;SDS011;35450;44.518;7.466;2023-05-07T16:02:20;9.13;;;5.00;;
49548;SDS011;35450;44.518;7.466;2023-05-07T16:05:24;7.03;;;3.50;;
49548;SDS011;35450;44.518;7.466;2023-05-07T16:08:28;7.63;;;4.50;;
49548;SDS011;35450;44.518;7.466;2023-05-07T16:11:32;5.20;;;4.10;;
49548;SDS011;35450;44.518;7.466;2023-05-07T16:14:36;8.05;;;5.47;;
49548;SDS011;35450;44.518;7.466;2023-05-07T16:17:40;5.32;;;4.80;;
49548;SDS011;35450;44.518;7.466;2023-05-07T16:20:44;9.95;;;5.43;;
49548;SDS011;35450;44.518;7.466;2023-05-07T16:23:48;7.90;;;5.90;;
49548;SDS011;35450;44.518;7.466;2023-05-07T16:26:53;19.45;;;6.07;;
49548;SDS011;35450;44.518;7.466;2023-05-07T16:29:57;11.38;;;6.65;;
49548;SDS011;35450;44.518;7.466;2023-05-07T16:33:01;8.15;;;6.45;;
49548;SDS011;35450;44.518;7.466;2023-05-07T16:36:05;9.40;;;7.03;;
49548;SDS011;35450;44.518;7.466;2023-05-07T16:39:10;13.05;;;6.43;;
49548;SDS011;35450;44.518;7.466;2023-05-07T16:42:13;10.30;;;7.45;;
49548;SDS011;35450;44.518;7.466;2023-05-07T16:45:17;8.98;;;6.93;;
49548;SDS011;35450;44.518;7.466;2023-05-07T16:48:21;9.13;;;5.88;;
49548;SDS011;35450;44.518;7.466;2023-05-07T16:51:25;7.03;;;5.93;;
49548;SDS011;35450;44.518;7.466;2023-05-07T16:54:30;6.63;;;5.43;;
49548;SDS011;35450;44.518;7.466;2023-05-07T16:57:34;8.00;;;6.10;;
49548;SDS011;35450;44.518;7.466;2023-05-07T17:00:38;8.82;;;5.88;;
49548;SDS011;35450;44.518;7.466;2023-05-07T17:03:42;7.35;;;6.28;;
49548;SDS011;35450;44.518;7.466;2023-05-07T17:06:46;12.15;;;6.35;;
49548;SDS011;35450;44.518;7.466;2023-05-07T17:09:49;7.97;;;7.05;;
49548;SDS011;35450;44.518;7.466;2023-05-07T17:12:53;11.65;;;7.82;;
49548;SDS011;35450;44.518;7.466;2023-05-07T17:15:57;9.57;;;7.28;;
49548;SDS011;35450;44.518;7.466;2023-05-07T17:19:01;17.40;;;7.80;;
49548;SDS011;35450;44.518;7.466;2023-05-07T17:22:05;9.40;;;8.50;;
49548;SDS011;35450;44.518;7.466;2023-05-07T17:25:09;13.90;;;8.80;;
49548;SDS011;35450;44.518;7.466;2023-05-07T17:28:13;14.75;;;9.93;;
49548;SDS011;35450;44.518;7.466;2023-05-07T17:31:17;17.63;;;9.85;;
49548;SDS011;35450;44.518;7.466;2023-05-07T17:34:21;17.58;;;10.43;;
49548;SDS011;35450;44.518;7.466;2023-05-07T17:37:25;16.95;;;10.23;;
49548;SDS011;35450;44.518;7.466;2023-05-07T17:40:29;15.75;;;10.65;;
49548;SDS011;35450;44.518;7.466;2023-05-07T17:43:33;13.35;;;10.27;;
49548;SDS011;35450;44.518;7.466;2023-05-07T17:46:37;15.73;;;10.95;;
49548;SDS011;35450;44.518;7.466;2023-05-07T17:49:41;11.50;;;9.55;;
49548;SDS011;35450;44.518;7.466;2023-05-07T17:52:45;16.20;;;9.70;;
49548;SDS011;35450;44.518;7.466;2023-05-07T17:55:49;12.35;;;10.25;;
49548;SDS011;35450;44.518;7.466;2023-05-07T17:58:55;14.02;;;9.88;;
49548;SDS011;35450;44.518;7.466;2023-05-07T18:02:00;15.05;;;11.13;;
49548;SDS011;35450;44.518;7.466;2023-05-07T18:05:04;17.65;;;11.48;;
49548;SDS011;35450;44.518;7.466;2023-05-07T18:08:09;16.65;;;12.38;;
49548;SDS011;35450;44.518;7.466;2023-05-07T18:11:13;16.27;;;12.77;;
49548;SDS011;35450;44.518;7.466;2023-05-07T18:14:17;15.57;;;12.43;;
49548;SDS011;35450;44.518;7.466;2023-05-07T18:17:26;16.58;;;14.02;;
49548;SDS011;35450;44.518;7.466;2023-05-07T18:20:30;16.88;;;12.55;;
49548;SDS011;35450;44.518;7.466;2023-05-07T18:23:35;19.38;;;12.98;;
49548;SDS011;35450;44.518;7.466;2023-05-07T18:26:39;14.13;;;12.02;;
49548;SDS011;35450;44.518;7.466;2023-05-07T18:29:43;15.57;;;11.98;;
49548;SDS011;35450;44.518;7.466;2023-05-07T18:32:47;12.80;;;10.95;;
49548;SDS011;35450;44.518;7.466;2023-05-07T18:35:51;14.70;;;11.55;;
49548;SDS011;35450;44.518;7.466;2023-05-07T18:38:57;17.35;;;13.75;;